Time;durP1;ratioP1;P1;durP2;ratioP2;P2;SDS_P1;SDS_P2;PMS_P1;PMS_P2;Temp;Humidity;BMP_temperature;BMP_pressure;BME280_temperature;BME280_humidity;BME280_pressure;Samples;Min_cycle;Max_cycle;Signal;HPM_P1;HPM_P2
2022/04/16 00:00:19;;;;;;;13.40;8.80;;;15.60;76.40;;;;;;5051618;28;20895;-73
2022/04/16 00:02:46;;;;;;;15.33;7.70;;;15.60;76.80;;;;;;5051234;28;20466;-73
2022/04/16 00:05:13;;;;;;;13.73;8.10;;;15.60;77.30;;;;;;5051478;28;20500;-73
2022/04/16 00:07:43;;;;;;;10.37;8.10;;;15.60;78.20;;;;;;5051293;28;20481;-73
2022/04/16 00:10:10;;;;;;;13.20;8.47;;;15.70;78.30;;;;;;5051141;28;20826;-73
2022/04/16 00:12:37;;;;;;;13.70;8.30;;;15.70;77.40;;;;;;5051244;28;20476;-73
2022/04/16 00:15:06;;;;;;;14.57;9.50;;;15.70;77.50;;;;;;5051372;28;20461;-73
2022/04/16 00:17:36;;;;;;;16.97;8.10;;;15.50;78.10;;;;;;5050905;28;20497;-74
2022/04/16 00:20:07;;;;;;;17.97;9.63;;;15.40;78.90;;;;;;5051470;28;20458;-73
2022/04/16 00:22:34;;;;;;;13.63;9.10;;;15.30;79.60;;;;;;5051140;28;20457;-73
2022/04/16 00:25:02;;;;;;;14.87;9.00;;;15.40;80.40;;;;;;5051038;28;20454;-72
2022/04/16 00:27:34;;;;;;;17.20;8.07;;;15.50;79.80;;;;;;5050900;28;20450;-74
2022/04/16 00:30:01;;;;;;;14.10;8.37;;;15.60;79.90;;;;;;5051117;28;20489;-71
2022/04/16 00:32:29;;;;;;;20.07;8.50;;;15.60;79.80;;;;;;5050939;28;20814;-73
2022/04/16 00:34:56;;;;;;;17.93;8.90;;;15.60;80.40;;;;;;5051282;28;20454;-74
2022/04/16 00:37:23;;;;;;;11.60;8.37;;;15.60;80.00;;;;;;5050817;28;20965;-73
2022/04/16 00:39:50;;;;;;;13.07;8.43;;;15.80;79.20;;;;;;5050325;28;20481;-73
2022/04/16 00:42:19;;;;;;;12.80;8.50;;;15.80;79.00;;;;;;5051098;28;20477;-73
2022/04/16 00:44:46;;;;;;;14.97;9.03;;;15.70;79.90;;;;;;5051016;28;20449;-73
2022/04/16 00:47:13;;;;;;;13.77;8.73;;;15.60;80.80;;;;;;5050835;28;21110;-73
2022/04/16 00:49:40;;;;;;;17.23;8.57;;;15.50;81.90;;;;;;5050673;28;21118;-73
2022/04/16 00:52:08;;;;;;;16.57;8.63;;;15.40;82.50;;;;;;5050362;28;20454;-73
2022/04/16 00:54:35;;;;;;;16.67;7.80;;;15.30;83.20;;;;;;5049962;28;20474;-73
2022/04/16 00:57:02;;;;;;;13.47;8.30;;;15.20;83.90;;;;;;5050650;28;20453;-73
2022/04/16 00:59:31;;;;;;;14.90;9.77;;;15.20;85.10;;;;;;5050475;28;20790;-73
2022/04/16 01:02:00;;;;;;;19.97;10.53;;;15.30;84.30;;;;;;5050509;28;20472;-73
2022/04/16 01:04:27;;;;;;;12.70;8.80;;;15.20;85.40;;;;;;5050225;28;20473;-73
2022/04/16 01:06:56;;;;;;;15.50;9.17;;;15.20;86.40;;;;;;5050315;28;20482;-73
2022/04/16 01:09:23;;;;;;;17.13;10.07;;;15.10;86.90;;;;;;5050108;28;20524;-73
2022/04/16 01:11:50;;;;;;;13.77;10.23;;;15.20;86.30;;;;;;5050403;28;20453;-73
2022/04/16 01:14:19;;;;;;;12.77;10.87;;;15.30;82.90;;;;;;5050296;28;20873;-73
2022/04/16 01:16:48;;;;;;;17.50;11.37;;;15.30;81.20;;;;;;5050125;28;20465;-74
2022/04/16 01:19:15;;;;;;;14.13;10.80;;;15.40;80.60;;;;;;5049676;28;20494;-73
2022/04/16 01:21:43;;;;;;;19.83;11.40;;;15.40;80.20;;;;;;5049774;28;21035;-73
2022/04/16 01:24:12;;;;;;;16.00;9.50;;;15.30;80.10;;;;;;5049659;28;20478;-74
2022/04/16 01:26:39;;;;;;;14.33;9.17;;;15.30;80.00;;;;;;5049772;28;20454;-73
2022/04/16 01:29:06;;;;;;;13.30;9.77;;;15.20;79.60;;;;;;5049754;28;21276;-74
2022/04/16 01:31:33;;;;;;;15.03;8.50;;;15.00;79.70;;;;;;5049882;28;20450;-74
2022/04/16 01:34:00;;;;;;;12.60;8.60;;;14.90;79.60;;;;;;5049657;28;20478;-73
2022/04/16 01:36:29;;;;;;;11.40;8.07;;;14.80;79.90;;;;;;5049565;28;20462;-73
2022/04/16 01:38:58;;;;;;;10.93;7.87;;;14.70;80.20;;;;;;5049608;28;20486;-74
2022/04/16 01:41:27;;;;;;;14.73;8.03;;;14.70;79.60;;;;;;5049844;28;20457;-73
2022/04/16 01:43:54;;;;;;;13.63;8.30;;;14.70;78.70;;;;;;5049890;28;20470;-74
2022/04/16 01:46:22;;;;;;;11.53;8.80;;;14.70;78.10;;;;;;5049572;28;20982;-74
2022/04/16 01:48:49;;;;;;;12.83;8.60;;;14.70;77.40;;;;;;5049469;28;20576;-73
2022/04/16 01:51:17;;;;;;;13.50;9.03;;;14.70;76.40;;;;;;5049472;28;20485;-73
2022/04/16 01:53:45;;;;;;;14.00;8.20;;;14.70;76.50;;;;;;5049050;28;20954;-72
2022/04/16 01:56:12;;;;;;;10.90;8.03;;;14.70;77.20;;;;;;5049420;28;20497;-73
2022/04/16 01:58:41;;;;;;;11.97;8.20;;;14.60;78.50;;;;;;5049505;28;20489;-72
2022/04/16 02:01:09;;;;;;;12.80;8.37;;;14.40;79.50;;;;;;5049364;28;20458;-73
2022/04/16 02:03:36;;;;;;;11.83;7.40;;;14.20;79.30;;;;;;5048474;28;20502;-73
2022/04/16 02:06:04;;;;;;;18.00;8.37;;;14.20;80.00;;;;;;5049208;28;20464;-73
2022/04/16 02:08:31;;;;;;;14.57;8.83;;;14.20;80.70;;;;;;5049025;28;20449;-73
2022/04/16 02:10:58;;;;;;;13.37;7.83;;;14.10;81.20;;;;;;5049048;28;21072;-73
2022/04/16 02:13:25;;;;;;;13.17;9.00;;;14.10;82.40;;;;;;5049109;28;20979;-74
2022/04/16 02:15:54;;;;;;;14.07;9.40;;;14.10;83.80;;;;;;5048630;28;20450;-74
2022/04/16 02:18:22;;;;;;;14.10;8.27;;;14.00;84.80;;;;;;5048704;28;20496;-73
2022/04/16 02:20:49;;;;;;;14.07;9.10;;;13.90;85.30;;;;;;5049123;28;20469;-72
2022/04/16 02:23:17;;;;;;;14.50;8.30;;;13.90;86.50;;;;;;5049135;28;20866;-72
2022/04/16 02:25:44;;;;;;;12.40;7.80;;;13.90;86.80;;;;;;5049332;28;20542;-73
2022/04/16 02:28:11;;;;;;;16.07;9.00;;;14.00;87.10;;;;;;5049103;28;20520;-73
2022/04/16 02:30:40;;;;;;;11.57;8.23;;;13.90;87.90;;;;;;5048840;28;20458;-73
2022/04/16 02:33:10;;;;;;;11.43;8.80;;;14.00;88.40;;;;;;5048768;28;20481;-73
2022/04/16 02:35:38;;;;;;;14.80;8.70;;;14.10;88.20;;;;;;5049047;28;20529;-73
2022/04/16 02:38:06;;;;;;;11.97;7.60;;;14.10;89.40;;;;;;5048845;28;20489;-73
2022/04/16 02:40:33;;;;;;;12.67;8.77;;;14.00;89.60;;;;;;5048488;28;21283;-73
2022/04/16 02:43:00;;;;;;;12.10;7.90;;;14.00;90.00;;;;;;5048760;28;20485;-73
2022/04/16 02:48:13;;;;;;;14.67;8.40;;;13.80;90.80;;;;;;5048216;28;20437;-73
2022/04/16 02:50:41;;;;;;;11.30;7.50;;;13.80;91.40;;;;;;5047241;28;20529;-73
2022/04/16 02:53:08;;;;;;;11.30;8.00;;;13.90;91.50;;;;;;5048859;28;20474;-73
2022/04/16 02:55:35;;;;;;;15.70;7.97;;;13.80;91.80;;;;;;5048938;28;20454;-73
2022/04/16 02:58:03;;;;;;;10.90;7.40;;;13.80;92.50;;;;;;5048861;28;20492;-73
2022/04/16 03:00:31;;;;;;;13.23;7.83;;;13.80;92.70;;;;;;5048483;28;20454;-73
2022/04/16 03:02:58;;;;;;;12.60;8.77;;;13.70;92.80;;;;;;5048804;28;20482;-73
2022/04/16 03:05:27;;;;;;;11.10;7.93;;;13.70;93.30;;;;;;5048672;28;20462;-74
2022/04/16 03:07:54;;;;;;;12.90;8.40;;;13.60;93.50;;;;;;5048480;28;20511;-73
2022/04/16 03:10:21;;;;;;;14.33;8.23;;;13.60;94.00;;;;;;5047133;28;20958;-73
2022/04/16 03:12:51;;;;;;;10.27;8.43;;;13.70;93.90;;;;;;5048489;28;20556;-72
2022/04/16 03:18:04;;;;;;;14.23;9.00;;;13.80;93.80;;;;;;5052435;28;20448;-73
2022/04/16 03:20:33;;;;;;;13.53;8.97;;;13.90;93.40;;;;;;5052263;28;20458;-72
2022/04/16 03:23:01;;;;;;;14.90;8.27;;;14.00;92.90;;;;;;5052162;28;20473;-73
2022/04/16 03:25:29;;;;;;;14.37;8.57;;;13.90;93.10;;;;;;5052330;28;20476;-73
2022/04/16 03:27:56;;;;;;;18.20;9.33;;;13.90;92.70;;;;;;5052304;28;20454;-73
2022/04/16 03:30:24;;;;;;;11.53;7.87;;;14.00;92.20;;;;;;5052088;28;20450;-74
2022/04/16 03:32:52;;;;;;;11.50;7.77;;;14.00;93.00;;;;;;5052366;28;20474;-73
2022/04/16 03:35:21;;;;;;;9.00;7.00;;;13.80;93.70;;;;;;5052393;28;20464;-73
2022/04/16 03:37:49;;;;;;;13.50;8.70;;;13.80;93.80;;;;;;5052043;28;20841;-72
2022/04/16 03:40:16;;;;;;;14.93;9.97;;;13.80;94.20;;;;;;5051953;28;20481;-73
2022/04/16 03:42:47;;;;;;;12.13;9.27;;;13.70;94.30;;;;;;5052215;28;20473;-72
2022/04/16 03:45:21;;;;;;;16.90;11.70;;;13.70;94.20;;;;;;5052054;28;20477;-73
2022/04/16 03:47:49;;;;;;;17.50;10.63;;;13.60;94.90;;;;;;5051957;28;20465;-73
2022/04/16 03:50:16;;;;;;;19.17;11.67;;;13.50;95.30;;;;;;5051582;28;20885;-73
2022/04/16 03:52:44;;;;;;;15.57;11.20;;;13.50;95.80;;;;;;5051997;28;20473;-72
2022/04/16 04:00:39;;;;;;;16.57;11.67;;;13.60;96.10;;;;;;5028559;28;20434;-73
2022/04/16 04:03:06;;;;;;;21.40;12.37;;;13.70;96.00;;;;;;5051585;28;20984;-74
2022/04/16 04:05:33;;;;;;;22.53;16.50;;;13.60;95.70;;;;;;5051576;28;20457;-73
2022/04/16 04:08:00;;;;;;;24.37;14.30;;;13.60;96.20;;;;;;5051554;28;20449;-73
2022/04/16 04:10:29;;;;;;;20.93;13.70;;;13.60;96.20;;;;;;5051346;28;20526;-73
2022/04/16 04:12:56;;;;;;;12.87;8.67;;;13.50;96.60;;;;;;5051443;28;20466;-73
2022/04/16 04:15:23;;;;;;;17.03;9.40;;;13.50;95.40;;;;;;5051094;28;20450;-73
2022/04/16 04:17:50;;;;;;;12.27;9.23;;;13.60;95.50;;;;;;5050147;28;20545;-73
2022/04/16 04:20:18;;;;;;;19.70;10.80;;;13.60;96.10;;;;;;5051430;28;20573;-72
2022/04/16 04:22:45;;;;;;;15.27;9.57;;;13.60;96.30;;;;;;5051250;28;20537;-72
2022/04/16 04:25:12;;;;;;;19.27;9.67;;;13.60;96.40;;;;;;5051331;28;20458;-72
2022/04/16 04:27:40;;;;;;;20.70;9.70;;;13.80;96.90;;;;;;5050595;28;20450;-73
2022/04/16 04:30:09;;;;;;;11.90;9.37;;;13.90;97.00;;;;;;5050769;28;20453;-73
2022/04/16 04:32:36;;;;;;;17.50;10.00;;;13.90;96.70;;;;;;5050788;28;21205;-73
2022/04/16 04:35:04;;;;;;;13.37;8.27;;;14.00;96.30;;;;;;5050595;28;20541;-73
2022/04/16 04:37:31;;;;;;;13.33;8.70;;;14.10;95.70;;;;;;5051151;28;20454;-73
2022/04/16 04:39:58;;;;;;;15.80;9.80;;;14.10;95.80;;;;;;5050943;28;20489;-73
2022/04/16 04:42:26;;;;;;;14.13;9.20;;;14.10;95.90;;;;;;5050561;28;20457;-73
2022/04/16 04:44:55;;;;;;;15.40;9.80;;;14.20;95.60;;;;;;5050785;28;20465;-73
2022/04/16 04:47:22;;;;;;;13.37;9.53;;;14.00;96.00;;;;;;5051170;28;20454;-73
2022/04/16 04:49:50;;;;;;;15.60;10.40;;;14.10;96.30;;;;;;5050330;28;20537;-75
2022/04/16 04:52:21;;;;;;;20.43;11.13;;;14.20;96.00;;;;;;5050640;28;20454;-73
2022/04/16 04:54:48;;;;;;;21.20;11.30;;;14.30;95.90;;;;;;5050476;28;20472;-73
2022/04/16 04:57:15;;;;;;;17.40;10.20;;;14.40;95.40;;;;;;5050710;28;20466;-73
2022/04/16 04:59:43;;;;;;;16.33;11.80;;;14.60;94.80;;;;;;5050034;28;20898;-74
2022/04/16 05:02:11;;;;;;;17.13;11.70;;;14.70;94.10;;;;;;5050308;28;20444;-75
2022/04/16 05:04:38;;;;;;;14.70;12.57;;;14.70;94.10;;;;;;5050400;28;20561;-74
2022/04/16 05:07:07;;;;;;;21.97;11.23;;;14.70;93.10;;;;;;5050236;28;20454;-73
2022/04/16 05:09:34;;;;;;;18.87;10.83;;;14.70;92.00;;;;;;5050685;28;20465;-73
2022/04/16 05:12:01;;;;;;;15.83;11.80;;;14.70;90.90;;;;;;5051115;28;20470;-70
2022/04/16 05:14:28;;;;;;;22.87;12.87;;;14.60;90.90;;;;;;5051076;28;20482;-72
2022/04/16 05:16:55;;;;;;;19.37;13.00;;;14.70;91.00;;;;;;5050873;28;20981;-73
2022/04/16 05:19:24;;;;;;;21.60;14.30;;;14.70;90.90;;;;;;5049993;28;20500;-72
2022/04/16 05:21:51;;;;;;;19.60;15.87;;;14.80;90.80;;;;;;5049983;28;20965;-72
2022/04/16 05:24:18;;;;;;;22.33;16.20;;;14.90;90.10;;;;;;5049836;28;20481;-72
2022/04/16 05:26:45;;;;;;;20.80;15.07;;;14.90;89.80;;;;;;5050289;28;20537;-79
2022/04/16 05:29:12;;;;;;;20.73;14.70;;;14.90;89.70;;;;;;5049950;28;20450;-72
2022/04/16 05:31:40;;;;;;;24.93;14.90;;;14.90;89.10;;;;;;5051113;28;20483;-71
2022/04/16 05:34:20;;;;;;;23.33;16.03;;;15.00;88.90;;;;;;5049644;28;20481;-72
2022/04/16 05:36:49;;;;;;;20.27;14.37;;;15.00;88.50;;;;;;5049876;28;20483;-72
2022/04/16 05:39:17;;;;;;;19.13;12.20;;;14.90;86.70;;;;;;5049881;28;20489;-76
2022/04/16 05:41:45;;;;;;;17.83;12.20;;;14.80;87.20;;;;;;5049541;28;20998;-76
2022/04/16 05:44:12;;;;;;;19.70;13.13;;;14.80;87.00;;;;;;5049368;28;20481;-75
2022/04/16 05:46:40;;;;;;;16.43;12.60;;;14.80;87.50;;;;;;5049864;28;20481;-76
2022/04/16 05:49:07;;;;;;;21.43;12.70;;;14.90;87.10;;;;;;5049811;28;20489;-73
2022/04/16 05:51:34;;;;;;;19.70;11.90;;;14.90;87.30;;;;;;5049656;28;20435;-71
2022/04/16 05:54:04;;;;;;;15.77;10.67;;;15.00;86.70;;;;;;5049443;28;21098;-75
2022/04/16 05:56:31;;;;;;;17.67;11.57;;;15.20;86.40;;;;;;5049995;28;20540;-81
2022/04/16 05:59:00;;;;;;;13.80;11.27;;;15.40;85.50;;;;;;5049709;28;20539;-72
2022/04/16 06:01:27;;;;;;;13.13;9.70;;;15.40;85.40;;;;;;5049502;28;20466;-73
2022/04/16 06:03:54;;;;;;;14.10;10.17;;;15.70;83.90;;;;;;5049665;28;20474;-76
2022/04/16 06:06:21;;;;;;;15.80;9.70;;;16.00;81.20;;;;;;5049830;28;20476;-77
2022/04/16 06:08:48;;;;;;;14.90;8.27;;;16.20;80.30;;;;;;5049875;28;20457;-76
2022/04/16 06:11:19;;;;;;;11.80;7.67;;;16.40;76.90;;;;;;5049521;28;20464;-76
2022/04/16 06:13:46;;;;;;;15.40;7.20;;;16.50;72.80;;;;;;5049226;28;20501;-73
2022/04/16 06:16:14;;;;;;;9.80;6.57;;;16.60;69.60;;;;;;5049773;28;20457;-72
2022/04/16 06:18:41;;;;;;;13.33;6.53;;;16.60;66.90;;;;;;5049400;28;20454;-77
2022/04/16 06:21:08;;;;;;;12.47;6.53;;;16.60;64.80;;;;;;5049155;28;20490;-74
2022/04/16 06:23:35;;;;;;;9.13;6.10;;;16.70;63.80;;;;;;5049348;28;20474;-68
2022/04/16 06:26:02;;;;;;;8.90;5.60;;;16.80;63.00;;;;;;5049117;28;20504;-79
2022/04/16 06:28:30;;;;;;;8.63;5.40;;;16.70;61.30;;;;;;5049366;28;20454;-73
2022/04/16 06:30:57;;;;;;;7.10;5.00;;;16.70;60.00;;;;;;5049396;28;20533;-74
2022/04/16 06:33:24;;;;;;;9.10;5.30;;;16.70;60.10;;;;;;5049150;28;20474;-74
2022/04/16 06:35:51;;;;;;;7.20;5.03;;;16.70;60.10;;;;;;5049418;28;20462;-75
2022/04/16 06:38:19;;;;;;;11.80;5.70;;;16.80;59.90;;;;;;5049397;28;20454;-74
2022/04/16 06:40:46;;;;;;;12.50;5.20;;;16.90;59.40;;;;;;5048667;28;20547;-75
2022/04/16 06:43:13;;;;;;;11.67;5.40;;;16.90;58.90;;;;;;5048775;28;20481;-76
2022/04/16 06:45:42;;;;;;;10.00;4.40;;;17.00;59.30;;;;;;5049298;28;20548;-77
2022/04/16 06:48:09;;;;;;;8.57;4.80;;;17.10;59.20;;;;;;5049099;28;20528;-74
2022/04/16 06:50:36;;;;;;;8.37;4.33;;;17.30;59.10;;;;;;5050840;28;20815;-76
2022/04/16 06:53:03;;;;;;;8.83;4.90;;;17.50;58.30;;;;;;5053960;28;20476;-76
2022/04/16 06:55:30;;;;;;;7.80;4.67;;;17.60;57.60;;;;;;5052777;28;20457;-76
2022/04/16 06:57:57;;;;;;;8.63;4.93;;;17.60;58.10;;;;;;5052725;28;20523;-76
2022/04/16 07:00:24;;;;;;;10.30;5.80;;;17.60;58.00;;;;;;5052940;28;20492;-77
2022/04/16 07:02:53;;;;;;;9.10;4.90;;;17.70;58.30;;;;;;5053117;28;20596;-80
2022/04/16 07:05:20;;;;;;;7.77;5.10;;;17.90;58.20;;;;;;5053304;28;20867;-79
2022/04/16 07:07:47;;;;;;;7.87;5.07;;;18.10;57.50;;;;;;5053504;28;20453;-78
2022/04/16 07:10:14;;;;;;;11.70;5.30;;;18.20;57.20;;;;;;5067144;28;20453;-77
2022/04/16 07:12:41;;;;;;;17.23;6.17;;;18.30;57.00;;;;;;5068146;28;20499;-78
2022/04/16 07:15:09;;;;;;;11.73;5.67;;;18.40;56.80;;;;;;5062574;28;20453;-76
2022/04/16 07:17:36;;;;;;;9.83;6.20;;;18.60;57.10;;;;;;5051358;28;20450;-77
2022/04/16 07:20:06;;;;;;;11.20;6.50;;;18.80;56.90;;;;;;5052811;28;20848;-78
2022/04/16 07:22:34;;;;;;;10.73;6.43;;;18.70;55.60;;;;;;5052936;28;20453;-79
2022/04/16 07:25:01;;;;;;;11.33;6.13;;;18.40;55.80;;;;;;5052170;28;20453;-74
2022/04/16 07:27:29;;;;;;;9.90;6.20;;;18.40;56.70;;;;;;5052583;28;20951;-76
2022/04/16 07:29:58;;;;;;;10.13;6.67;;;18.40;56.60;;;;;;5052576;28;20464;-76
2022/04/16 07:32:25;;;;;;;10.27;6.60;;;18.50;57.00;;;;;;5052222;28;20577;-77
2022/04/16 07:34:53;;;;;;;10.83;7.10;;;18.40;57.10;;;;;;5051861;28;20532;-74
2022/04/16 07:37:22;;;;;;;11.13;7.07;;;18.50;57.10;;;;;;5051911;28;20523;-71
2022/04/16 07:39:50;;;;;;;11.00;7.23;;;18.60;57.40;;;;;;5052226;28;20486;-77
2022/04/16 07:42:17;;;;;;;12.30;6.57;;;18.80;57.70;;;;;;5051875;28;20540;-73
2022/04/16 07:44:45;;;;;;;10.87;6.67;;;19.10;57.80;;;;;;5052276;28;20438;-72
2022/04/16 07:47:12;;;;;;;10.20;6.47;;;19.20;56.70;;;;;;5052255;28;20962;-78
2022/04/16 07:49:39;;;;;;;11.43;6.30;;;19.00;56.80;;;;;;5051863;28;20477;-76
2022/04/16 07:52:08;;;;;;;14.07;6.37;;;19.00;57.30;;;;;;5052154;28;20449;-75
2022/04/16 07:54:37;;;;;;;14.53;5.87;;;19.10;58.40;;;;;;5052251;28;20481;-73
2022/04/16 07:57:05;;;;;;;10.33;6.63;;;19.00;56.90;;;;;;5052281;28;20983;-73
2022/04/16 07:59:32;;;;;;;9.60;6.43;;;19.00;57.10;;;;;;5051835;28;20462;-75
2022/04/16 08:01:59;;;;;;;10.13;6.97;;;19.00;57.50;;;;;;5050358;28;20442;-77
2022/04/16 08:04:27;;;;;;;10.10;6.10;;;19.00;57.90;;;;;;5051477;28;20492;-76
2022/04/16 08:06:54;;;;;;;9.20;6.30;;;19.00;56.50;;;;;;5051326;28;20462;-76
2022/04/16 08:09:21;;;;;;;9.23;5.73;;;19.10;56.50;;;;;;5051544;28;20458;-76
2022/04/16 08:11:49;;;;;;;11.00;5.97;;;18.90;56.20;;;;;;5051502;28;20458;-76
2022/04/16 08:14:17;;;;;;;8.43;5.63;;;18.90;56.00;;;;;;5051397;28;20465;-75
2022/04/16 08:16:44;;;;;;;9.83;5.90;;;19.00;56.40;;;;;;5051618;28;20449;-75
2022/04/16 08:19:11;;;;;;;8.13;6.27;;;19.20;56.90;;;;;;5051210;28;20495;-75
2022/04/16 08:21:38;;;;;;;11.83;6.70;;;19.30;56.10;;;;;;5049955;28;20552;-76
2022/04/16 08:24:13;;;;;;;8.60;5.77;;;19.40;56.00;;;;;;5051432;28;20469;-76
2022/04/16 08:26:40;;;;;;;15.17;6.20;;;19.50;55.60;;;;;;5051351;28;20568;-75
2022/04/16 08:29:09;;;;;;;13.60;6.33;;;19.40;55.10;;;;;;5051315;28;20461;-76
2022/04/16 08:31:36;;;;;;;10.20;7.03;;;19.40;55.50;;;;;;5051212;28;20804;-75
2022/04/16 08:34:04;;;;;;;9.23;5.87;;;19.20;55.00;;;;;;5050738;28;20469;-76
2022/04/16 08:36:32;;;;;;;8.10;5.97;;;19.20;55.90;;;;;;5051136;28;20454;-76
2022/04/16 08:38:59;;;;;;;12.23;7.03;;;19.30;56.50;;;;;;5051221;28;20473;-76
2022/04/16 08:41:27;;;;;;;13.97;5.67;;;19.40;56.50;;;;;;5051006;28;21209;-76
2022/04/16 08:43:54;;;;;;;10.50;5.40;;;19.50;56.90;;;;;;5050705;28;20481;-77
2022/04/16 08:46:24;;;;;;;11.30;5.77;;;19.60;55.90;;;;;;5051186;28;20545;-76
2022/04/16 08:48:52;;;;;;;10.10;6.17;;;19.80;55.00;;;;;;5050630;28;20496;-77
2022/04/16 08:51:19;;;;;;;9.30;5.80;;;19.90;55.70;;;;;;5050972;28;20983;-76
2022/04/16 08:53:46;;;;;;;12.57;6.30;;;20.20;56.20;;;;;;5050927;28;20458;-76
2022/04/16 08:56:13;;;;;;;8.80;6.00;;;20.80;55.50;;;;;;5050205;28;20466;-77
2022/04/16 08:58:40;;;;;;;11.60;5.90;;;21.10;54.90;;;;;;5050668;28;20454;-77
2022/04/16 09:01:07;;;;;;;8.80;5.27;;;21.30;52.60;;;;;;5050376;28;20494;-76
2022/04/16 09:03:37;;;;;;;10.00;5.60;;;21.50;51.50;;;;;;5050498;28;20957;-77
2022/04/16 09:06:05;;;;;;;10.83;5.40;;;21.50;50.70;;;;;;5048968;28;20809;-76
2022/04/16 09:08:33;;;;;;;10.90;6.00;;;21.90;51.00;;;;;;5050213;28;20973;-79
2022/04/16 09:11:07;;;;;;;10.57;6.63;;;22.20;50.40;;;;;;5049849;28;20457;-77
2022/04/16 09:13:34;;;;;;;9.53;5.97;;;22.50;49.80;;;;;;5050013;28;21131;-74
2022/04/16 09:16:05;;;;;;;8.50;5.20;;;22.70;49.20;;;;;;5050399;28;20962;-75
2022/04/16 09:18:34;;;;;;;8.57;6.10;;;22.80;49.40;;;;;;5050566;28;20449;-75
2022/04/16 09:21:12;;;;;;;9.13;6.10;;;23.00;48.50;;;;;;5050649;28;21113;-75
2022/04/16 09:23:44;;;;;;;9.50;6.37;;;23.10;48.10;;;;;;5050222;28;21104;-76
2022/04/16 09:26:11;;;;;;;7.97;5.40;;;23.00;48.40;;;;;;5049990;28;20536;-77
2022/04/16 09:28:45;;;;;;;8.70;5.57;;;23.00;48.20;;;;;;5050087;28;20465;-76
2022/04/16 09:31:12;;;;;;;9.73;6.23;;;23.20;47.80;;;;;;5049935;28;20560;-75
2022/04/16 09:33:41;;;;;;;10.40;6.47;;;23.30;47.60;;;;;;5049534;28;20462;-78
2022/04/16 09:36:09;;;;;;;11.50;5.97;;;23.30;47.40;;;;;;5049813;28;20492;-76
2022/04/16 09:38:37;;;;;;;9.73;5.23;;;23.40;47.40;;;;;;5050010;28;20457;-75
2022/04/16 09:41:08;;;;;;;13.67;6.23;;;23.40;47.60;;;;;;5049470;28;20516;-76
2022/04/16 09:43:36;;;;;;;9.03;5.73;;;23.50;48.00;;;;;;5049311;28;20454;-72
2022/04/16 09:46:11;;;;;;;9.10;6.33;;;23.60;48.20;;;;;;5049574;28;20565;-76
2022/04/16 09:48:38;;;;;;;10.60;5.60;;;23.50;46.70;;;;;;5049240;28;20656;-75
2022/04/16 09:51:06;;;;;;;9.13;6.63;;;23.40;46.50;;;;;;5049635;28;20492;-77
2022/04/16 09:53:38;;;;;;;8.03;5.70;;;23.60;46.70;;;;;;5049577;28;20482;-77
2022/04/16 09:56:11;;;;;;;8.03;6.33;;;23.90;46.70;;;;;;5049383;28;20525;-79
2022/04/16 09:58:42;;;;;;;9.43;6.20;;;24.10;46.20;;;;;;5049958;28;20458;-78
2022/04/16 10:01:11;;;;;;;9.53;6.07;;;24.30;47.00;;;;;;5049348;28;20499;-81
2022/04/16 10:03:39;;;;;;;11.63;5.50;;;24.40;45.90;;;;;;5049468;28;21078;-76
2022/04/16 10:06:07;;;;;;;7.17;6.30;;;24.40;45.30;;;;;;5049635;28;20510;-75
2022/04/16 10:08:37;;;;;;;9.83;6.27;;;24.50;45.90;;;;;;5049416;28;20453;-77
2022/04/16 10:11:05;;;;;;;11.27;8.20;;;24.50;45.90;;;;;;5049400;28;20483;-77
2022/04/16 10:13:40;;;;;;;8.50;5.93;;;24.80;45.70;;;;;;5049444;28;20462;-77
2022/04/16 10:16:14;;;;;;;9.40;6.93;;;24.80;44.90;;;;;;5049128;28;20588;-69
2022/04/16 10:18:42;;;;;;;8.90;5.53;;;24.60;44.70;;;;;;5048822;28;20986;-71
2022/04/16 10:21:16;;;;;;;10.40;6.50;;;24.80;44.80;;;;;;5049070;28;20862;-72
2022/04/16 10:23:44;;;;;;;9.37;6.17;;;24.90;45.00;;;;;;5049062;28;20972;-70
2022/04/16 10:26:13;;;;;;;10.90;5.60;;;25.10;44.90;;;;;;5048347;28;20449;-69
2022/04/16 10:28:41;;;;;;;9.50;5.30;;;25.20;44.80;;;;;;5049114;28;20507;-67
2022/04/16 10:31:21;;;;;;;8.60;5.27;;;25.10;45.30;;;;;;5049036;28;20450;-71
2022/04/16 10:34:01;;;;;;;8.30;5.50;;;25.20;45.10;;;;;;5048872;28;20473;-67
2022/04/16 10:36:32;;;;;;;7.43;5.20;;;25.40;44.90;;;;;;5049065;28;20604;-70
2022/04/16 10:39:01;;;;;;;7.13;5.40;;;25.60;43.40;;;;;;5049020;28;20464;-70
2022/04/16 10:41:28;;;;;;;9.00;5.90;;;25.60;43.80;;;;;;5048899;28;20577;-71
2022/04/16 10:43:59;;;;;;;6.80;5.50;;;25.50;42.60;;;;;;5048340;28;20795;-71
2022/04/16 10:46:41;;;;;;;7.33;5.53;;;25.30;43.40;;;;;;5048912;28;20533;-71
2022/04/16 10:49:09;;;;;;;9.93;5.70;;;25.30;43.50;;;;;;5048564;28;20577;-71
2022/04/16 10:51:36;;;;;;;8.77;5.47;;;25.40;44.00;;;;;;5048887;28;20450;-71
2022/04/16 10:54:10;;;;;;;10.53;6.07;;;25.60;44.80;;;;;;5048219;28;20489;-72
2022/04/16 10:56:39;;;;;;;11.33;6.97;;;25.70;44.70;;;;;;5048809;28;20541;-69
2022/04/16 10:59:07;;;;;;;10.13;6.77;;;25.80;44.00;;;;;;5048784;28;20485;-72
2022/04/16 11:01:35;;;;;;;8.30;5.30;;;26.00;43.90;;;;;;5048526;28;20569;-71
2022/04/16 11:04:13;;;;;;;9.80;6.13;;;26.20;43.30;;;;;;5048593;28;20535;-71
2022/04/16 11:06:44;;;;;;;11.70;6.63;;;26.30;42.80;;;;;;5048690;28;20553;-73
2022/04/16 11:09:17;;;;;;;9.47;6.73;;;26.10;43.30;;;;;;5048469;28;20533;-74
2022/04/16 11:11:44;;;;;;;9.43;6.10;;;26.20;43.40;;;;;;5048842;28;20463;-71
2022/04/16 11:14:11;;;;;;;7.73;5.50;;;26.20;43.00;;;;;;5048503;28;21068;-73
2022/04/16 11:16:45;;;;;;;8.10;6.10;;;26.20;43.20;;;;;;5048503;28;20461;-72
2022/04/16 11:19:15;;;;;;;8.83;5.70;;;26.20;43.20;;;;;;5048916;28;20450;-70
2022/04/16 11:21:43;;;;;;;13.13;5.47;;;26.00;43.40;;;;;;5048807;28;20594;-73
2022/04/16 11:24:10;;;;;;;18.53;6.60;;;26.10;43.40;;;;;;5048364;28;20474;-74
2022/04/16 11:34:53;;;;;;;8.27;6.30;;;26.70;43.80;;;;;;5048176;28;20429;-72
2022/04/16 11:37:21;;;;;;;9.80;6.13;;;27.10;43.40;;;;;;5050840;28;20460;-73
2022/04/16 11:39:59;;;;;;;8.43;6.17;;;27.20;42.50;;;;;;5052047;28;20450;-72
2022/04/16 11:42:27;;;;;;;10.03;5.97;;;27.40;42.90;;;;;;5051293;28;20520;-72
2022/04/16 11:44:54;;;;;;;10.30;5.80;;;27.40;42.40;;;;;;5051810;28;20450;-70
2022/04/16 11:47:23;;;;;;;11.30;5.80;;;27.50;42.40;;;;;;5051862;28;20927;-70
2022/04/16 11:49:52;;;;;;;14.23;5.77;;;27.60;41.90;;;;;;5051550;28;20484;-72
2022/04/16 11:52:24;;;;;;;7.13;4.90;;;27.60;42.10;;;;;;5051694;28;20987;-72
2022/04/16 11:55:01;;;;;;;6.40;5.23;;;27.50;42.10;;;;;;5051913;28;20461;-72
2022/04/16 11:57:29;;;;;;;7.17;5.37;;;27.30;42.30;;;;;;5051405;28;20545;-73
2022/04/16 11:59:58;;;;;;;10.90;5.67;;;27.50;41.80;;;;;;5051519;28;20465;-74
2022/04/16 12:02:31;;;;;;;8.07;5.10;;;27.50;42.00;;;;;;5051780;28;20580;-73
2022/04/16 12:05:08;;;;;;;11.67;5.30;;;27.50;41.20;;;;;;5051725;28;20458;-72
2022/04/16 12:07:36;;;;;;;8.43;6.27;;;27.30;41.90;;;;;;5051302;28;20510;-73
2022/04/16 12:10:06;;;;;;;8.47;5.20;;;27.40;42.00;;;;;;5051057;28;21168;-73
2022/04/16 12:12:46;;;;;;;6.90;5.10;;;27.30;41.20;;;;;;5051327;28;20591;-74
2022/04/16 12:15:16;;;;;;;7.13;5.27;;;27.00;42.30;;;;;;5050966;28;20453;-72
2022/04/16 12:17:43;;;;;;;7.17;4.67;;;27.00;42.70;;;;;;5051445;28;20454;-70
2022/04/16 12:20:12;;;;;;;8.00;5.50;;;27.10;42.10;;;;;;5051291;28;20454;-72
2022/04/16 12:22:50;;;;;;;7.90;4.90;;;27.40;41.70;;;;;;5050458;28;20516;-71
2022/04/16 12:25:18;;;;;;;8.73;5.50;;;27.50;42.30;;;;;;5050641;28;20464;-70
2022/04/16 12:27:48;;;;;;;8.73;5.07;;;27.60;42.10;;;;;;5050623;28;20508;-74
2022/04/16 12:30:20;;;;;;;7.00;5.07;;;27.50;42.70;;;;;;5050922;28;20454;-72
2022/04/16 12:32:58;;;;;;;6.50;4.77;;;27.50;41.70;;;;;;5050880;28;20465;-73
2022/04/16 12:35:25;;;;;;;6.67;4.53;;;27.50;41.70;;;;;;5050686;28;20472;-73
2022/04/16 12:37:53;;;;;;;7.30;4.40;;;27.60;41.20;;;;;;5050791;28;20454;-74
2022/04/16 12:40:20;;;;;;;6.87;4.50;;;27.70;41.60;;;;;;5050935;28;20454;-71
2022/04/16 12:42:49;;;;;;;7.70;5.03;;;27.60;41.20;;;;;;5050964;28;20985;-73
2022/04/16 12:45:16;;;;;;;6.63;4.80;;;27.30;41.20;;;;;;5050836;28;20450;-72
2022/04/16 12:47:43;;;;;;;8.20;4.50;;;27.20;41.80;;;;;;5049978;28;20462;-74
2022/04/16 12:50:11;;;;;;;8.00;4.50;;;27.10;41.30;;;;;;5050325;28;21005;-71
2022/04/16 12:52:38;;;;;;;8.03;4.70;;;27.20;41.50;;;;;;5050293;28;20466;-70
2022/04/16 12:55:06;;;;;;;6.43;4.20;;;27.30;40.90;;;;;;5050793;28;20507;-70
2022/04/16 12:57:33;;;;;;;6.30;4.60;;;27.30;41.20;;;;;;5050890;28;20450;-72
2022/04/16 13:00:01;;;;;;;7.00;4.77;;;27.20;41.30;;;;;;5050597;28;20441;-71
2022/04/16 13:02:28;;;;;;;7.00;4.90;;;27.10;42.00;;;;;;5050411;28;20481;-71